Terminal Aerodrome Forecast
Issued by NWS Missoula, MT

Home | Current Version | Previous Version | Text Only | Print | Product List | Glossary On
Versions: 1 2 3 4 5 6 7 8 9 10 11 12 13 14 15 16 17 18
000
FTUS45 KMSO 271745 AAA
TAFGPI
TAF AMD
KGPI 271745Z 2718/2818 24005KT 2SM -SN BR SCT008 OVC020
     FM280000 18004KT 1SM -SN BR SCT006 OVC010
     FM281200 03015G25KT 1/2SM SN BKN005 OVC010
     FM281700 04020G40KT 3/4SM BLSN OVC007=

USA.gov is the U.S. government's official web portal to all federal, state and local government web resources and services.